JAL5 KJFK-RJTT
Flight info
| Callsign | JAL5 |
|---|---|
| Flight time | N/A |
| Altitude | 34000 |
| Route | GREKI DCT JUDDS DCT CAM DCT BUGSY DCT PELEE DCT 61N090W 64N100W 66N110W 67N120W 68N130W DCT POTAT NCA30 OME/N0496F360 R338 NATES/N0493F370 R220 NRKEY/N0501F380 R220 NUBDA/N0498F390 R220 NANAC/N0493F380 Y810 AKRIT Y807 LALID Y804 INUBO Y108 MESSE |
| Aircraft | A35K/H-SDE2E3GHIJ3J4J5LM1ORWXY/LB1D1 |
Departure
| Time | 2026-05-09 07:35 |
|---|---|
| Airport | John F. Kennedy International Airport (KJFK) |
Arrival
| Time | N/A |
|---|---|
| Airport | Tokyo Haneda International Airport (RJTT) |
| Time | Latitude | Longitude | Altitude | Speed | Heading |
|---|---|---|---|---|---|
| 2026-05-09 07:08 | 40.64166 | -73.79151 | 30 ft | 0 kts | 307° |
| 2026-05-09 07:12 | 40.64163 | -73.79145 | 30 ft | 4 kts | 307° |
| 2026-05-09 07:12 | 40.64146 | -73.79117 | 29 ft | 4 kts | 307° |
| 2026-05-09 07:13 | 40.64134 | -73.79095 | 29 ft | 4 kts | 295° |
| 2026-05-09 07:13 | 40.64131 | -73.79067 | 28 ft | 4 kts | 242° |
| 2026-05-09 07:13 | 40.64131 | -73.79066 | 28 ft | 4 kts | 236° |
| 2026-05-09 07:13 | 40.64112 | -73.79090 | 30 ft | 4 kts | 219° |
| 2026-05-09 07:14 | 40.64094 | -73.79111 | 30 ft | 2 kts | 224° |
| 2026-05-09 07:14 | 40.64077 | -73.79133 | 30 ft | 4 kts | 224° |
| 2026-05-09 07:14 | 40.64057 | -73.79158 | 30 ft | 4 kts | 224° |
| 2026-05-09 07:14 | 40.64038 | -73.79183 | 30 ft | 4 kts | 224° |
| 2026-05-09 07:15 | 40.64166 | -73.79151 | 31 ft | 0 kts | 307° |
| 2026-05-09 07:21 | 40.64158 | -73.79138 | 31 ft | 4 kts | 307° |
| 2026-05-09 07:21 | 40.64143 | -73.79111 | 31 ft | 3 kts | 307° |
| 2026-05-09 07:21 | 40.64131 | -73.79088 | 31 ft | 4 kts | 281° |
| 2026-05-09 07:21 | 40.64134 | -73.79061 | 31 ft | 2 kts | 238° |
| 2026-05-09 07:22 | 40.64126 | -73.79074 | 31 ft | 4 kts | 228° |
| 2026-05-09 07:22 | 40.64105 | -73.79097 | 30 ft | 4 kts | 220° |
| 2026-05-09 07:22 | 40.64090 | -73.79116 | 30 ft | 4 kts | 224° |
| 2026-05-09 07:22 | 40.64071 | -73.79141 | 30 ft | 4 kts | 224° |
| 2026-05-09 07:23 | 40.64051 | -73.79166 | 30 ft | 4 kts | 224° |
| 2026-05-09 07:23 | 40.64034 | -73.79188 | 30 ft | 1 kts | 224° |
| 2026-05-09 07:23 | 40.64034 | -73.79189 | 30 ft | 1 kts | 224° |
| 2026-05-09 07:26 | 40.64030 | -73.79193 | 30 ft | 1 kts | 224° |
| 2026-05-09 07:27 | 40.64017 | -73.79211 | 30 ft | 5 kts | 224° |
| 2026-05-09 07:27 | 40.63968 | -73.79229 | 26 ft | 11 kts | 169° |
| 2026-05-09 07:27 | 40.63913 | -73.79159 | 27 ft | 11 kts | 122° |
| 2026-05-09 07:27 | 40.63879 | -73.79078 | 28 ft | 10 kts | 118° |
| 2026-05-09 07:28 | 40.63846 | -73.79005 | 29 ft | 9 kts | 121° |
| 2026-05-09 07:28 | 40.63813 | -73.78933 | 30 ft | 9 kts | 121° |
| 2026-05-09 07:28 | 40.63783 | -73.78867 | 32 ft | 8 kts | 121° |
| 2026-05-09 07:28 | 40.63760 | -73.78817 | 33 ft | 5 kts | 121° |
| 2026-05-09 07:29 | 40.63744 | -73.78780 | 34 ft | 4 kts | 120° |
| 2026-05-09 07:29 | 40.63730 | -73.78748 | 35 ft | 4 kts | 120° |
| 2026-05-09 07:29 | 40.63713 | -73.78709 | 35 ft | 6 kts | 120° |
| 2026-05-09 07:29 | 40.63690 | -73.78657 | 34 ft | 8 kts | 120° |
| 2026-05-09 07:30 | 40.63658 | -73.78589 | 34 ft | 10 kts | 123° |
| 2026-05-09 07:30 | 40.63623 | -73.78514 | 35 ft | 9 kts | 121° |
| 2026-05-09 07:30 | 40.63588 | -73.78437 | 34 ft | 10 kts | 121° |
| 2026-05-09 07:30 | 40.63546 | -73.78345 | 32 ft | 13 kts | 121° |
| 2026-05-09 07:31 | 40.63495 | -73.78232 | 31 ft | 15 kts | 121° |
| 2026-05-09 07:31 | 40.63442 | -73.78114 | 30 ft | 15 kts | 121° |
| 2026-05-09 07:31 | 40.63385 | -73.77987 | 29 ft | 17 kts | 119° |
| 2026-05-09 07:31 | 40.63332 | -73.77861 | 32 ft | 15 kts | 121° |
| 2026-05-09 07:32 | 40.63282 | -73.77750 | 33 ft | 14 kts | 120° |
| 2026-05-09 07:32 | 40.63232 | -73.77637 | 34 ft | 14 kts | 120° |
| 2026-05-09 07:32 | 40.63184 | -73.77532 | 35 ft | 13 kts | 121° |
| 2026-05-09 07:32 | 40.63136 | -73.77427 | 34 ft | 14 kts | 120° |
| 2026-05-09 07:33 | 40.63084 | -73.77308 | 33 ft | 16 kts | 120° |
| 2026-05-09 07:33 | 40.62956 | -73.77089 | 29 ft | 14 kts | 178° |
| 2026-05-09 07:33 | 40.62875 | -73.77144 | 30 ft | 13 kts | 212° |
| 2026-05-09 07:34 | 40.62832 | -73.77233 | 29 ft | 12 kts | 277° |
| 2026-05-09 07:34 | 40.62848 | -73.77286 | 30 ft | 0 kts | 300° |
| 2026-05-09 07:34 | 40.62888 | -73.77376 | 33 ft | 38 kts | 300° |
| 2026-05-09 07:34 | 40.63145 | -73.77937 | 34 ft | 106 kts | 301° |
| 2026-05-09 07:35 | 40.63637 | -73.79024 | 31 ft | 166 kts | 301° |
| 2026-05-09 07:35 | 40.64306 | -73.80501 | 310 ft | 195 kts | 300° |
| 2026-05-09 07:35 | 40.64761 | -73.82105 | 1161 ft | 189 kts | 270° |
| 2026-05-09 07:35 | 40.64333 | -73.83761 | 1490 ft | 202 kts | 228° |
| 2026-05-09 07:36 | 40.63192 | -73.84871 | 1916 ft | 206 kts | 214° |
| 2026-05-09 07:36 | 40.62037 | -73.85991 | 2459 ft | 206 kts | 221° |
| 2026-05-09 07:36 | 40.60953 | -73.87234 | 2955 ft | 206 kts | 219° |
| 2026-05-09 07:36 | 40.59691 | -73.88118 | 3440 ft | 209 kts | 198° |
| 2026-05-09 07:37 | 40.58206 | -73.88173 | 3777 ft | 224 kts | 171° |
| 2026-05-09 07:37 | 40.56709 | -73.87435 | 4001 ft | 241 kts | 161° |
| 2026-05-09 07:37 | 40.55135 | -73.86473 | 4216 ft | 256 kts | 160° |
| 2026-05-09 07:37 | 40.53444 | -73.85684 | 4658 ft | 257 kts | 172° |
| 2026-05-09 07:38 | 40.51703 | -73.85086 | 5159 ft | 261 kts | 170° |
| 2026-05-09 07:38 | 40.49975 | -73.84236 | 5670 ft | 269 kts | 160° |
| 2026-05-09 07:38 | 40.48346 | -73.82946 | 6216 ft | 278 kts | 149° |
| 2026-05-09 07:38 | 40.46893 | -73.81201 | 6717 ft | 288 kts | 137° |
| 2026-05-09 07:39 | 40.45699 | -73.79035 | 7221 ft | 298 kts | 124° |
| 2026-05-09 07:39 | 40.44848 | -73.76524 | 7771 ft | 305 kts | 111° |
| 2026-05-09 07:39 | 40.44505 | -73.74724 | 8141 ft | 309 kts | 102° |
| 2026-05-09 07:39 | 40.44415 | -73.70927 | 8903 ft | 315 kts | 83° |
| 2026-05-09 07:40 | 40.44887 | -73.68147 | 9454 ft | 317 kts | 69° |
| 2026-05-09 07:40 | 40.45817 | -73.65527 | 10028 ft | 316 kts | 55° |
| 2026-05-09 07:40 | 40.47152 | -73.63210 | 10345 ft | 323 kts | 41° |
| 2026-05-09 07:40 | 40.48269 | -73.61884 | 10461 ft | 329 kts | 32° |
| 2026-05-09 07:41 | 40.50247 | -73.60313 | 10674 ft | 337 kts | 18° |
| 2026-05-09 07:41 | 40.52499 | -73.59354 | 10875 ft | 344 kts | 5° |
| 2026-05-09 07:41 | 40.54900 | -73.59106 | 11074 ft | 350 kts | 351° |
| 2026-05-09 07:41 | 40.57354 | -73.59441 | 11302 ft | 360 kts | 346° |
| 2026-05-09 07:42 | 40.59876 | -73.59928 | 11530 ft | 372 kts | 346° |
| 2026-05-09 07:42 | 40.62459 | -73.60427 | 11931 ft | 378 kts | 346° |
| 2026-05-09 07:42 | 40.65084 | -73.60924 | 12436 ft | 382 kts | 346° |
| 2026-05-09 07:42 | 40.67723 | -73.61416 | 12966 ft | 385 kts | 346° |
| 2026-05-09 07:43 | 40.70389 | -73.61911 | 13499 ft | 388 kts | 347° |
| 2026-05-09 07:43 | 40.73077 | -73.62409 | 13980 ft | 391 kts | 346° |
| 2026-05-09 07:43 | 40.75789 | -73.62910 | 14433 ft | 395 kts | 346° |
| 2026-05-09 07:43 | 40.78521 | -73.63416 | 14874 ft | 398 kts | 346° |
| 2026-05-09 07:44 | 40.81274 | -73.63925 | 15340 ft | 401 kts | 346° |
| 2026-05-09 07:44 | 40.84061 | -73.64370 | 15798 ft | 407 kts | 350° |
| 2026-05-09 07:44 | 40.86899 | -73.64165 | 16214 ft | 423 kts | 5° |
| 2026-05-09 07:44 | 40.89769 | -73.63124 | 16652 ft | 432 kts | 12° |
| 2026-05-09 07:45 | 40.92619 | -73.61737 | 17039 ft | 439 kts | 15° |
| 2026-05-09 07:45 | 40.95461 | -73.60176 | 17443 ft | 444 kts | 17° |
| 2026-05-09 07:45 | 40.98314 | -73.58548 | 17838 ft | 448 kts | 17° |
| 2026-05-09 07:45 | 41.01193 | -73.56906 | 18267 ft | 452 kts | 17° |
| 2026-05-09 07:46 | 41.04100 | -73.55273 | 18678 ft | 454 kts | 16° |
| 2026-05-09 07:46 | 41.07028 | -73.53699 | 19100 ft | 453 kts | 12° |
| 2026-05-09 07:46 | 41.10048 | -73.52657 | 19531 ft | 446 kts | 2° |
| 2026-05-09 07:46 | 41.13071 | -73.52058 | 19962 ft | 444 kts | 359° |
| 2026-05-09 07:47 | 41.16146 | -73.51651 | 20398 ft | 443 kts | 356° |
| 2026-05-09 07:47 | 41.19231 | -73.51356 | 20851 ft | 444 kts | 355° |
| 2026-05-09 07:47 | 41.22317 | -73.51106 | 21329 ft | 446 kts | 355° |
| 2026-05-09 07:47 | 41.25422 | -73.50861 | 21814 ft | 447 kts | 355° |
| 2026-05-09 07:48 | 41.28542 | -73.50606 | 22238 ft | 450 kts | 355° |
| 2026-05-09 07:48 | 41.31684 | -73.50340 | 22647 ft | 453 kts | 355° |
| 2026-05-09 07:48 | 41.34843 | -73.50061 | 23066 ft | 456 kts | 355° |
| 2026-05-09 07:48 | 41.38019 | -73.49773 | 23498 ft | 458 kts | 355° |
| 2026-05-09 07:49 | 41.41217 | -73.49474 | 23860 ft | 461 kts | 355° |
| 2026-05-09 07:49 | 41.44428 | -73.49172 | 24186 ft | 465 kts | 355° |
| 2026-05-09 07:49 | 41.47620 | -73.48873 | 24530 ft | 466 kts | 355° |
| 2026-05-09 07:49 | 41.50864 | -73.48569 | 24917 ft | 468 kts | 355° |
| 2026-05-09 07:50 | 41.54111 | -73.48266 | 25269 ft | 468 kts | 354° |
| 2026-05-09 07:50 | 41.57371 | -73.47972 | 25632 ft | 470 kts | 354° |
| 2026-05-09 07:50 | 41.60643 | -73.47664 | 25995 ft | 472 kts | 354° |
| 2026-05-09 07:50 | 41.63920 | -73.47349 | 26350 ft | 473 kts | 354° |
| 2026-05-09 07:51 | 41.67215 | -73.47036 | 26699 ft | 475 kts | 354° |
| 2026-05-09 07:51 | 41.70518 | -73.46729 | 27051 ft | 476 kts | 354° |
| 2026-05-09 07:51 | 41.73835 | -73.46414 | 27402 ft | 478 kts | 354° |
| 2026-05-09 07:51 | 41.77159 | -73.46097 | 27736 ft | 480 kts | 354° |
| 2026-05-09 07:52 | 41.80498 | -73.45783 | 28063 ft | 481 kts | 354° |
| 2026-05-09 07:52 | 41.83845 | -73.45471 | 28367 ft | 484 kts | 354° |
| 2026-05-09 07:52 | 41.87211 | -73.45159 | 28611 ft | 486 kts | 354° |
| 2026-05-09 07:52 | 41.90549 | -73.44848 | 28959 ft | 486 kts | 354° |
| 2026-05-09 07:53 | 41.93920 | -73.44528 | 29456 ft | 483 kts | 354° |
| 2026-05-09 07:53 | 41.97262 | -73.44208 | 29920 ft | 481 kts | 353° |
| 2026-05-09 07:53 | 42.00592 | -73.43890 | 30218 ft | 480 kts | 353° |
| 2026-05-09 07:53 | 42.03929 | -73.43575 | 30496 ft | 480 kts | 353° |
| 2026-05-09 07:54 | 42.07264 | -73.43262 | 30719 ft | 480 kts | 353° |
| 2026-05-09 07:54 | 42.10593 | -73.42947 | 31003 ft | 479 kts | 353° |
| 2026-05-09 07:54 | 42.13902 | -73.42629 | 31373 ft | 474 kts | 353° |
| 2026-05-09 07:54 | 42.17194 | -73.42310 | 31675 ft | 473 kts | 353° |
| 2026-05-09 07:55 | 42.20472 | -73.41998 | 31928 ft | 472 kts | 353° |
| 2026-05-09 07:55 | 42.23741 | -73.41688 | 32275 ft | 469 kts | 353° |
| 2026-05-09 07:55 | 42.26987 | -73.41377 | 32652 ft | 466 kts | 353° |
| 2026-05-09 07:55 | 42.30174 | -73.41073 | 32917 ft | 464 kts | 353° |
| 2026-05-09 07:56 | 42.33398 | -73.40771 | 33133 ft | 463 kts | 352° |
| 2026-05-09 07:56 | 42.36614 | -73.40469 | 33333 ft | 463 kts | 352° |
| 2026-05-09 07:56 | 42.39823 | -73.40164 | 33526 ft | 462 kts | 353° |
| 2026-05-09 07:56 | 42.43032 | -73.39856 | 33834 ft | 461 kts | 352° |
| 2026-05-09 07:57 | 42.46238 | -73.39548 | 33960 ft | 461 kts | 352° |
| 2026-05-09 07:57 | 42.52626 | -73.38933 | 33973 ft | 460 kts | 352° |
| 2026-05-09 07:58 | 42.59012 | -73.38317 | 34010 ft | 460 kts | 352° |
| 2026-05-09 07:58 | 42.62207 | -73.38009 | 34152 ft | 461 kts | 352° |
| 2026-05-09 07:58 | 42.65371 | -73.37711 | 34229 ft | 461 kts | 352° |
| 2026-05-09 07:59 | 42.71794 | -73.37112 | 34379 ft | 463 kts | 353° |
| 2026-05-09 07:59 | 42.78229 | -73.36478 | 34538 ft | 464 kts | 353° |
| 2026-05-09 07:59 | 42.81452 | -73.36161 | 34660 ft | 464 kts | 353° |
| 2026-05-09 08:00 | 42.84692 | -73.35844 | 34652 ft | 467 kts | 353° |
| 2026-05-09 08:00 | 42.91186 | -73.35212 | 34814 ft | 468 kts | 353° |
| 2026-05-09 08:01 | 42.97609 | -73.34826 | 34971 ft | 458 kts | 346° |
| 2026-05-09 08:01 | 43.03751 | -73.36296 | 35022 ft | 445 kts | 335° |
| 2026-05-09 08:02 | 43.09644 | -73.38796 | 35169 ft | 441 kts | 332° |
| 2026-05-09 08:02 | 43.15463 | -73.41510 | 35320 ft | 442 kts | 332° |
| 2026-05-09 08:03 | 43.21302 | -73.44212 | 35469 ft | 443 kts | 333° |
| 2026-05-09 08:03 | 43.27202 | -73.46898 | 35449 ft | 448 kts | 333° |
| 2026-05-09 08:04 | 43.33125 | -73.49570 | 35627 ft | 448 kts | 333° |
| 2026-05-09 08:04 | 43.39019 | -73.52236 | 35737 ft | 449 kts | 333° |
| 2026-05-09 08:05 | 43.44966 | -73.54937 | 35772 ft | 453 kts | 333° |
| 2026-05-09 08:05 | 43.50956 | -73.57666 | 35865 ft | 453 kts | 333° |
| 2026-05-09 08:06 | 43.56988 | -73.60418 | 35810 ft | 458 kts | 333° |
| 2026-05-09 08:06 | 43.63051 | -73.63187 | 35916 ft | 459 kts | 333° |
| 2026-05-09 08:07 | 43.69118 | -73.65963 | 35991 ft | 460 kts | 333° |
| 2026-05-09 08:07 | 43.75155 | -73.68731 | 35986 ft | 459 kts | 333° |
| 2026-05-09 08:08 | 43.81213 | -73.71521 | 35991 ft | 459 kts | 333° |
| 2026-05-09 08:08 | 43.87286 | -73.74322 | 35983 ft | 460 kts | 334° |
| 2026-05-09 08:09 | 43.93333 | -73.77116 | 35980 ft | 461 kts | 334° |
| 2026-05-09 08:09 | 43.99417 | -73.79930 | 35969 ft | 461 kts | 334° |
| 2026-05-09 08:10 | 44.05501 | -73.82746 | 35979 ft | 461 kts | 334° |
| 2026-05-09 08:10 | 44.11609 | -73.85592 | 35954 ft | 463 kts | 334° |
| 2026-05-09 08:11 | 44.17728 | -73.88447 | 35944 ft | 464 kts | 334° |
| 2026-05-09 08:11 | 44.23856 | -73.91303 | 35945 ft | 464 kts | 334° |
| 2026-05-09 08:12 | 44.33021 | -73.95595 | 35970 ft | 466 kts | 334° |
| 2026-05-09 08:12 | 44.39172 | -73.98485 | 35966 ft | 466 kts | 334° |
| 2026-05-09 08:13 | 44.45319 | -74.01376 | 35993 ft | 466 kts | 334° |
| 2026-05-09 08:13 | 44.51439 | -74.04265 | 35960 ft | 467 kts | 334° |
| 2026-05-09 08:14 | 44.57626 | -74.07190 | 35929 ft | 469 kts | 334° |
| 2026-05-09 08:14 | 44.63811 | -74.10120 | 35934 ft | 469 kts | 334° |
| 2026-05-09 08:15 | 44.69995 | -74.13056 | 35938 ft | 469 kts | 335° |
| 2026-05-09 08:15 | 44.76139 | -74.16156 | 35931 ft | 467 kts | 331° |
| 2026-05-09 08:16 | 44.82041 | -74.19774 | 35926 ft | 465 kts | 329° |
| 2026-05-09 08:16 | 44.87954 | -74.23490 | 35936 ft | 465 kts | 330° |
| 2026-05-09 08:17 | 44.93898 | -74.27138 | 35914 ft | 466 kts | 330° |
| 2026-05-09 08:17 | 44.99867 | -74.30750 | 35915 ft | 467 kts | 330° |
| 2026-05-09 08:18 | 45.05844 | -74.34361 | 35907 ft | 466 kts | 330° |
| 2026-05-09 08:18 | 45.11815 | -74.37980 | 35910 ft | 467 kts | 330° |
| 2026-05-09 08:19 | 45.17751 | -74.41590 | 35903 ft | 468 kts | 330° |
| 2026-05-09 08:19 | 45.23771 | -74.45261 | 35903 ft | 468 kts | 331° |
| 2026-05-09 08:20 | 45.29759 | -74.48918 | 35902 ft | 468 kts | 331° |
| 2026-05-09 08:20 | 45.35750 | -74.52587 | 35904 ft | 469 kts | 331° |
| 2026-05-09 08:21 | 45.41708 | -74.56245 | 35903 ft | 469 kts | 331° |
| 2026-05-09 08:21 | 45.47705 | -74.59934 | 35906 ft | 469 kts | 331° |